Breckenridge, TX

3:21 PM CDT on September 17, 2014 (GMT -0500)
Stephens County | Change Station
CLOSE
Current Station
Airport
Location: Breckenridge,
Elevation: 1283 ft
Nearby Weather Stations

Elev 1283 ft 32.72 °N, 98.89 °W | Updated 26 minutes ago

Mostly Cloudy
Mostly Cloudy
93 °F
Feels Like 93 °F
N
4
Wind Variable Wind from NE

Today
High -- | Low -- °F
--% Chance of Precip.
Yesterday
High -- | Low -- °F
Precip. -- in
7:20 AM 7:39 PM
Waning Crescent, 33% visible
Pressure 29.90 in
Visibility 7.0 miles
Clouds Scattered Clouds 6500 ft
Heat Index 93 °F
Dew Point 60 °F
Humidity 33%
Rainfall 0.00 in
Snow Depth Not available.
UV 7 out of 12
Pollen 9.90 out of 12
Air Quality Not available.
Flu Activity Not available.
METAR KBKD 171955Z AUTO 04003KT 7SM SCT065 34/16 A2990 RMK AO2 LTG DSNT SW T03400157

More Conditions Fewer Conditions

Pressure 29.90 in
Visibility 7.0 miles
Clouds Scattered Clouds 6500 ft
Heat Index 93 °F
Dew Point 60 °F
Humidity 33%
Rainfall 0.00 in
Snow Depth Not available.
UV 7 out of 12
Pollen 9.90 out of 12
Air Quality Not available.
Flu Activity Not available.
METAR KBKD 171955Z AUTO 04003KT 7SM SCT065 34/16 A2990 RMK AO2 LTG DSNT SW T03400157

More Conditions Fewer Conditions

Nowcast | as of 3:02 PM CDT on September 17, 2014

As of 3 PM...scattered showers and thunderstorms were located across North Texas...with most activity along and north of Interstate 20. Through mid afternoon...isolated showers and thunderstorms will remain possible for all of north and central Texas. Rainfall amounts should remain light...with rain totals generally less than one tenth of an inch across most locations. However...locally higher amounts are possible for any area that encounters a slow moving thunderstorm. Otherwise...skies are expected to remain partly to mostly cloudy across most of north and central Texas...and afternoon highs are expected to climb into the low to mid 90s.

×

10-Day Weather Forecast

Almanac

Astronomy

Sep. 17, 2014 Rise Set
Actual Time 7:20 AM CDT 7:39 PM CDT
Civil Twilight 6:55 AM CDT 8:03 PM CDT
Nautical Twilight 6:27 AM CDT 8:32 PM CDT
Astronomical Twilight 5:57 AM CDT 9:01 PM CDT
Moon 1:35 AM CDT 3:36 PM CDT
Length of Visible Light 13h 07m
Length of Day
12h 18m
Tomorrow will be 2m 0s shorter.
Waning Crescent, 33% of the Moon is Illuminated
Today
Waning Crescent
Sep 24
New
Oct 1
First Quarter
Oct 8
Full
Oct 15
Last Quarter

Today's Extremes

State Highs State Lows

Community

WunderPhotos

Upload Photos

1,754,157 photos uploaded!

Nearby

Snow Depth

Station Depth Elevation
No new snow has been reported.

Earthquake Activity

City Distance Mag. Time & Date
No recent earthquake activity has been reported nearby.
Minimum magnitude displayed is 2.5.

Coastal Water Temperatures

Place Temperature
No Stations Reporting

Nearby Weather Stations